Saint-Zacharie, Canada
Current Conditions -  °F | °C
As of 2:00 PM on Friday 31 Oct 2014 (Local Time) from CYQB Reporting Station
Broken Clouds Broken Clouds  
Wind Chill: 43°   Ceiling: 6000
Heat Index: 43°   Visibility: 30mi
Dew Point: 30°   Wind: 3mph
Humidity: 61%   Direction: 310°NW
Pressure: 30.05"   Gusts: NA
Location:  46.13°N, 70.37°W
Report Text: CYQB 311800Z 31003KT 210V020 30SM FEW029 BKN060 06/M01 A3005 RMK SC2SC5 SLP179
Loading
Personal Weather Stations






























Interactive Weather Map
Tropical Storm Tracking
New forecast layout! Learn more

10-Day Weather Forecast

Advertisements
Track Severe Weather on mobile